Time;durP1;ratioP1;P1;durP2;ratioP2;P2;SDS_P1;SDS_P2;PMS_P1;PMS_P2;Temp;Humidity;BMP_temperature;BMP_pressure;BME280_temperature;BME280_humidity;BME280_pressure;Samples;Min_cycle;Max_cycle;Signal;HPM_P1;HPM_P2
2022/05/15 00:02:07;;;;;;;;;;;20.50;42.00;;;;;;5097233;28;19920;-57
2022/05/15 00:04:35;;;;;;;;;;;20.50;42.00;;;;;;5095956;28;20219;-57
2022/05/15 00:07:02;;;;;;;;;;;20.50;42.10;;;;;;5096909;28;19920;-57
2022/05/15 00:09:29;;;;;;;;;;;20.50;42.10;;;;;;5097002;28;20315;-58
2022/05/15 00:11:55;;;;;;;;;;;20.50;42.10;;;;;;5096258;28;20026;-58
2022/05/15 00:14:22;;;;;;;;;;;20.50;42.10;;;;;;5095698;28;20265;-57
2022/05/15 00:16:49;;;;;;;;;;;20.50;42.10;;;;;;5095497;28;19920;-57
2022/05/15 00:19:15;;;;;;;;;;;20.50;42.10;;;;;;5095235;28;19963;-58
2022/05/15 00:21:43;;;;;;;;;;;20.50;42.20;;;;;;5095394;28;20014;-52
2022/05/15 00:24:10;;;;;;;;;;;20.50;42.20;;;;;;5132343;27;20361;-55
2022/05/15 00:26:36;;;;;;;;;;;20.50;42.20;;;;;;5116172;28;19920;-57
2022/05/15 00:29:03;;;;;;;;;;;20.50;42.20;;;;;;5115529;28;19926;-56
2022/05/15 00:31:30;;;;;;;;;;;20.50;42.20;;;;;;5115843;28;20238;-56
2022/05/15 00:33:57;;;;;;;;;;;20.50;42.20;;;;;;5113216;28;20018;-57
2022/05/15 00:36:23;;;;;;;;;;;20.50;42.20;;;;;;5150721;27;20145;-56
2022/05/15 00:38:51;;;;;;;;;;;20.50;42.20;;;;;;5149739;27;19920;-57
2022/05/15 00:41:18;;;;;;;;;;;20.50;42.20;;;;;;5116792;28;19924;-57
2022/05/15 00:43:45;;;;;;;;;;;20.50;42.20;;;;;;5115586;28;19919;-57
2022/05/15 00:46:12;;;;;;;;;;;20.50;42.20;;;;;;5115515;28;19967;-57
2022/05/15 00:48:39;;;;;;;;;;;20.50;42.20;;;;;;5149938;27;19924;-60
2022/05/15 00:51:09;;;;;;;;;;;20.50;42.20;;;;;;5113089;28;19926;-57
2022/05/15 00:53:35;;;;;;;;;;;20.50;42.20;;;;;;5115642;28;19987;-57
2022/05/15 00:56:04;;;;;;;;;;;20.50;42.20;;;;;;5116941;28;19989;-58
2022/05/15 00:58:32;;;;;;;;;;;20.50;42.20;;;;;;5115247;28;19920;-56
2022/05/15 01:00:58;;;;;;;;;;;20.50;42.20;;;;;;5112920;28;20382;-56
2022/05/15 01:03:25;;;;;;;;;;;20.50;42.20;;;;;;5116386;28;19920;-57
2022/05/15 01:05:52;;;;;;;;;;;20.50;42.20;;;;;;5115884;28;20383;-57
2022/05/15 01:08:19;;;;;;;;;;;20.50;42.20;;;;;;5116167;28;20287;-55
2022/05/15 01:10:46;;;;;;;;;;;20.50;42.20;;;;;;5114190;28;20321;-56
2022/05/15 01:13:15;;;;;;;;;;;20.50;42.20;;;;;;5114686;28;20276;-55
2022/05/15 01:15:42;;;;;;;;;;;20.50;42.20;;;;;;5115484;28;19920;-55
2022/05/15 01:18:09;;;;;;;;;;;20.50;42.20;;;;;;5115936;28;19931;-56
2022/05/15 01:20:35;;;;;;;;;;;20.50;42.20;;;;;;5116231;28;20002;-53
2022/05/15 01:23:03;;;;;;;;;;;20.40;42.20;;;;;;5114954;28;19927;-55
2022/05/15 01:25:31;;;;;;;;;;;20.50;42.20;;;;;;5114562;28;19920;-57
2022/05/15 01:27:59;;;;;;;;;;;20.50;42.30;;;;;;5115164;28;19927;-57
2022/05/15 01:30:25;;;;;;;;;;;20.50;42.30;;;;;;5115087;28;19924;-57
2022/05/15 01:32:52;;;;;;;;;;;20.50;42.30;;;;;;5115866;28;19919;-57
2022/05/15 01:35:19;;;;;;;;;;;20.50;42.30;;;;;;5115239;28;20026;-57
2022/05/15 01:37:45;;;;;;;;;;;20.50;42.30;;;;;;5113870;28;19920;-57
2022/05/15 01:40:14;;;;;;;;;;;20.40;42.20;;;;;;5114315;28;20022;-57
2022/05/15 01:42:41;;;;;;;;;;;20.50;42.30;;;;;;5114391;28;19991;-56
2022/05/15 01:45:08;;;;;;;;;;;20.40;42.20;;;;;;5114357;28;19968;-58
2022/05/15 01:47:34;;;;;;;;;;;20.40;42.30;;;;;;5115399;28;20292;-57
2022/05/15 01:50:01;;;;;;;;;;;20.40;42.20;;;;;;5113858;28;20010;-57
2022/05/15 01:52:28;;;;;;;;;;;20.40;42.30;;;;;;5115262;28;20290;-58
2022/05/15 01:54:55;;;;;;;;;;;20.40;42.30;;;;;;5114178;28;19919;-56
2022/05/15 01:57:23;;;;;;;;;;;20.40;42.20;;;;;;5115144;28;20361;-57
2022/05/15 01:59:49;;;;;;;;;;;20.40;42.30;;;;;;5114572;28;20011;-56
2022/05/15 02:02:16;;;;;;;;;;;20.40;42.30;;;;;;5113805;28;20385;-56
2022/05/15 02:04:45;;;;;;;;;;;20.40;42.20;;;;;;5114545;28;20043;-57
2022/05/15 02:07:11;;;;;;;;;;;20.40;42.30;;;;;;5113810;28;20277;-57
2022/05/15 02:09:38;;;;;;;;;;;20.40;42.30;;;;;;5113703;28;20399;-55
2022/05/15 02:12:05;;;;;;;;;;;20.40;42.30;;;;;;5115350;28;19973;-54
2022/05/15 02:14:33;;;;;;;;;;;20.40;42.30;;;;;;5114583;28;19920;-57
2022/05/15 02:17:00;;;;;;;;;;;20.40;42.30;;;;;;5114429;28;19930;-54
2022/05/15 02:19:26;;;;;;;;;;;20.40;42.30;;;;;;5114329;28;19973;-54
2022/05/15 02:21:53;;;;;;;;;;;20.40;42.30;;;;;;5113386;28;19923;-56
2022/05/15 02:24:20;;;;;;;;;;;20.40;42.30;;;;;;5114479;28;19973;-57
2022/05/15 02:26:47;;;;;;;;;;;20.40;42.30;;;;;;5113690;28;19920;-57
2022/05/15 02:29:13;;;;;;;;;;;20.40;42.30;;;;;;5114010;28;19919;-56
2022/05/15 02:31:41;;;;;;;;;;;20.40;42.30;;;;;;5115148;28;19924;-54
2022/05/15 02:34:10;;;;;;;;;;;20.40;42.30;;;;;;5113399;28;21850;-56
2022/05/15 02:36:36;;;;;;;;;;;20.40;42.30;;;;;;5113629;28;20011;-56
2022/05/15 02:39:03;;;;;;;;;;;20.40;42.30;;;;;;5113827;28;19953;-57
2022/05/15 02:41:30;;;;;;;;;;;20.40;42.30;;;;;;5113957;28;20077;-57
2022/05/15 02:43:57;;;;;;;;;;;20.40;42.30;;;;;;5114645;28;19920;-58
2022/05/15 02:46:23;;;;;;;;;;;20.40;42.30;;;;;;5113593;28;20026;-57
2022/05/15 02:51:35;;;;;;;;;;;20.40;42.30;;;;;;5114284;28;19939;-55
2022/05/15 02:54:02;;;;;;;;;;;20.40;42.30;;;;;;5114330;28;20032;-55
2022/05/15 02:56:29;;;;;;;;;;;20.40;42.30;;;;;;5114207;28;19926;-55
2022/05/15 02:58:56;;;;;;;;;;;20.40;42.30;;;;;;5109613;28;19919;-57
2022/05/15 03:01:22;;;;;;;;;;;20.40;42.40;;;;;;5114495;28;19920;-56
2022/05/15 03:03:49;;;;;;;;;;;20.40;42.30;;;;;;5113760;28;19927;-57
2022/05/15 03:06:17;;;;;;;;;;;20.40;42.30;;;;;;5147859;27;19962;-57
2022/05/15 03:08:45;;;;;;;;;;;20.40;42.30;;;;;;5114033;28;19969;-55
2022/05/15 03:11:12;;;;;;;;;;;20.40;42.30;;;;;;5114100;28;19951;-57
2022/05/15 03:13:38;;;;;;;;;;;20.40;42.30;;;;;;5113287;28;19924;-56
2022/05/15 03:16:05;;;;;;;;;;;20.40;42.30;;;;;;5114326;28;19967;-57
2022/05/15 03:18:32;;;;;;;;;;;20.40;42.30;;;;;;5113951;28;19934;-57
2022/05/15 03:20:58;;;;;;;;;;;20.40;42.30;;;;;;5114214;28;19926;-57
2022/05/15 03:23:26;;;;;;;;;;;20.40;42.30;;;;;;5114567;28;20032;-57
2022/05/15 03:25:53;;;;;;;;;;;20.40;42.30;;;;;;5113351;28;20018;-53
2022/05/15 03:28:20;;;;;;;;;;;20.40;42.30;;;;;;5113687;28;19930;-56
2022/05/15 03:30:47;;;;;;;;;;;20.40;42.30;;;;;;5112733;28;20006;-57
2022/05/15 03:33:15;;;;;;;;;;;20.30;42.20;;;;;;5147099;27;19919;-57
2022/05/15 03:35:41;;;;;;;;;;;20.40;42.40;;;;;;5116913;28;19980;-55
2022/05/15 03:38:08;;;;;;;;;;;20.40;42.40;;;;;;5116809;28;20018;-55
2022/05/15 03:40:36;;;;;;;;;;;20.40;42.40;;;;;;5118270;28;19920;-57
2022/05/15 03:43:03;;;;;;;;;;;20.30;42.20;;;;;;5151140;27;20360;-58
2022/05/15 03:45:30;;;;;;;;;;;20.30;42.30;;;;;;5116895;28;20390;-57
2022/05/15 03:47:57;;;;;;;;;;;20.30;42.30;;;;;;5116718;28;20010;-55
2022/05/15 03:50:24;;;;;;;;;;;20.30;42.20;;;;;;5117515;28;20037;-57
2022/05/15 03:52:51;;;;;;;;;;;20.30;42.30;;;;;;5117255;28;19924;-55
2022/05/15 03:55:17;;;;;;;;;;;20.30;42.30;;;;;;5117472;28;19969;-53
2022/05/15 03:57:45;;;;;;;;;;;20.30;42.20;;;;;;5116459;28;19920;-57
2022/05/15 04:00:13;;;;;;;;;;;20.30;42.30;;;;;;5116401;28;19924;-54
2022/05/15 04:02:40;;;;;;;;;;;20.30;42.30;;;;;;5118630;28;19942;-59
2022/05/15 04:05:07;;;;;;;;;;;20.30;42.30;;;;;;5118435;28;19919;-58
2022/05/15 04:07:35;;;;;;;;;;;20.30;42.30;;;;;;5116409;28;19926;-56
2022/05/15 04:10:02;;;;;;;;;;;20.30;42.30;;;;;;5116463;28;19919;-57
2022/05/15 04:12:29;;;;;;;;;;;20.30;42.30;;;;;;5116976;28;20357;-57
2022/05/15 04:14:57;;;;;;;;;;;20.30;42.30;;;;;;5116138;28;19928;-55
2022/05/15 04:17:23;;;;;;;;;;;20.30;42.80;;;;;;5116335;28;19976;-57
2022/05/15 04:19:50;;;;;;;;;;;20.30;42.20;;;;;;5116566;28;19923;-55
2022/05/15 04:22:17;;;;;;;;;;;20.30;42.20;;;;;;5117507;28;20260;-57
2022/05/15 04:24:43;;;;;;;;;;;20.30;42.20;;;;;;5115893;28;20047;-57
2022/05/15 04:27:10;;;;;;;;;;;20.30;42.30;;;;;;5116984;28;19931;-56
2022/05/15 04:29:37;;;;;;;;;;;20.30;42.20;;;;;;5115483;28;19934;-56
2022/05/15 04:32:06;;;;;;;;;;;20.30;42.20;;;;;;5117555;28;20020;-56
2022/05/15 04:34:32;;;;;;;;;;;20.30;42.30;;;;;;5113881;28;19985;-55
2022/05/15 04:36:59;;;;;;;;;;;20.30;42.30;;;;;;5116783;28;19923;-56
2022/05/15 04:39:26;;;;;;;;;;;20.30;42.30;;;;;;5114709;28;19965;-57
2022/05/15 04:41:52;;;;;;;;;;;20.30;42.20;;;;;;5115992;28;19919;-57
2022/05/15 04:44:19;;;;;;;;;;;20.30;42.20;;;;;;5115812;28;20289;-57
2022/05/15 04:46:46;;;;;;;;;;;20.30;42.20;;;;;;5115277;28;19926;-56
2022/05/15 04:49:13;;;;;;;;;;;20.30;42.30;;;;;;5117051;28;19919;-57
2022/05/15 04:51:40;;;;;;;;;;;20.30;42.30;;;;;;5116926;28;20357;-57
2022/05/15 04:54:07;;;;;;;;;;;20.30;42.20;;;;;;5116263;28;19920;-57
2022/05/15 04:56:33;;;;;;;;;;;20.30;42.20;;;;;;5116229;28;19933;-55
2022/05/15 04:59:00;;;;;;;;;;;20.30;42.20;;;;;;5116483;28;19965;-57
2022/05/15 05:01:27;;;;;;;;;;;20.30;42.20;;;;;;5116063;28;19920;-55
2022/05/15 05:03:54;;;;;;;;;;;20.30;42.30;;;;;;5115429;28;19927;-52
2022/05/15 05:06:22;;;;;;;;;;;20.30;42.20;;;;;;5115723;28;19927;-55
2022/05/15 05:08:49;;;;;;;;;;;20.30;42.20;;;;;;5113056;28;20014;-56
2022/05/15 05:11:16;;;;;;;;;;;20.30;42.20;;;;;;5116163;28;19965;-55
2022/05/15 05:13:42;;;;;;;;;;;20.30;42.20;;;;;;5116366;28;19920;-55
2022/05/15 05:16:09;;;;;;;;;;;20.30;42.30;;;;;;5116285;28;19920;-54
2022/05/15 05:18:36;;;;;;;;;;;20.30;42.30;;;;;;5115523;28;20345;-53
2022/05/15 05:21:03;;;;;;;;;;;20.30;42.30;;;;;;5115846;28;20032;-57
2022/05/15 05:23:31;;;;;;;;;;;20.30;42.30;;;;;;5115144;28;19923;-57
2022/05/15 05:25:57;;;;;;;;;;;20.30;42.30;;;;;;5149209;27;19920;-57
2022/05/15 05:28:24;;;;;;;;;;;20.30;42.30;;;;;;5115721;28;19934;-57
2022/05/15 05:30:51;;;;;;;;;;;20.30;42.30;;;;;;5115363;28;19965;-57
2022/05/15 05:33:17;;;;;;;;;;;20.30;42.30;;;;;;5115669;28;20249;-56
2022/05/15 05:35:44;;;;;;;;;;;20.30;42.40;;;;;;5114352;28;19920;-55
2022/05/15 05:38:11;;;;;;;;;;;20.30;42.40;;;;;;5112171;28;20356;-56
2022/05/15 05:40:39;;;;;;;;;;;20.30;42.40;;;;;;5114502;28;20014;-53
2022/05/15 05:43:05;;;;;;;;;;;20.30;42.40;;;;;;5116252;28;19920;-55
2022/05/15 05:45:32;;;;;;;;;;;20.30;42.30;;;;;;5114674;28;19962;-55
2022/05/15 05:47:58;;;;;;;;;;;20.30;42.30;;;;;;5115084;28;19984;-56
2022/05/15 05:50:25;;;;;;;;;;;20.30;42.40;;;;;;5114535;28;20272;-57
2022/05/15 05:52:54;;;;;;;;;;;20.30;42.40;;;;;;5114259;28;20387;-57
2022/05/15 05:55:20;;;;;;;;;;;20.30;42.40;;;;;;5115398;28;20349;-57
2022/05/15 05:57:48;;;;;;;;;;;20.20;42.30;;;;;;5113442;28;20313;-54
2022/05/15 06:00:16;;;;;;;;;;;20.30;42.40;;;;;;5114539;28;20291;-57
2022/05/15 06:02:43;;;;;;;;;;;20.30;42.50;;;;;;5114014;28;20003;-52
2022/05/15 06:05:09;;;;;;;;;;;20.30;42.40;;;;;;5114602;28;19920;-57
2022/05/15 06:07:37;;;;;;;;;;;20.30;42.50;;;;;;5114097;28;19926;-57
2022/05/15 06:10:04;;;;;;;;;;;20.30;42.50;;;;;;5094909;28;19920;-57
2022/05/15 06:12:31;;;;;;;;;;;20.30;42.50;;;;;;5094601;28;19920;-55
2022/05/15 06:14:59;;;;;;;;;;;20.30;42.50;;;;;;5127559;27;20022;-56
2022/05/15 06:17:26;;;;;;;;;;;20.30;42.50;;;;;;5093427;28;19920;-56
2022/05/15 06:19:53;;;;;;;;;;;20.30;42.50;;;;;;5094835;28;19924;-53
2022/05/15 06:22:20;;;;;;;;;;;20.30;42.50;;;;;;5094989;28;19923;-53
2022/05/15 06:24:46;;;;;;;;;;;20.30;42.50;;;;;;5094598;28;19974;-56
2022/05/15 06:27:13;;;;;;;;;;;20.30;42.60;;;;;;5127343;27;19967;-57
2022/05/15 06:29:40;;;;;;;;;;;20.30;42.60;;;;;;5126976;27;19920;-57
2022/05/15 06:32:09;;;;;;;;;;;20.30;42.70;;;;;;5094397;28;19920;-57
2022/05/15 06:34:35;;;;;;;;;;;20.30;42.60;;;;;;5094055;28;19950;-52
2022/05/15 06:37:02;;;;;;;;;;;20.30;42.70;;;;;;5094209;28;19969;-57
2022/05/15 06:39:29;;;;;;;;;;;20.30;42.70;;;;;;5102783;28;19920;-54
2022/05/15 06:41:59;;;;;;;;;;;20.30;42.70;;;;;;5114602;28;20390;-57
2022/05/15 06:44:26;;;;;;;;;;;20.30;42.70;;;;;;5115087;28;20344;-55
2022/05/15 06:46:52;;;;;;;;;;;20.30;42.80;;;;;;5114053;28;19955;-57
2022/05/15 06:49:20;;;;;;;;;;;20.40;42.90;;;;;;5111782;28;19955;-53
2022/05/15 06:51:47;;;;;;;;;;;20.40;42.90;;;;;;5114698;28;19966;-56
2022/05/15 06:54:14;;;;;;;;;;;20.40;42.90;;;;;;5113057;28;19989;-54
2022/05/15 06:59:24;;;;;;;;;;;20.40;42.90;;;;;;5114278;28;19931;-55
2022/05/15 07:01:51;;;;;;;;;;;20.40;42.90;;;;;;5113800;28;20318;-56
2022/05/15 07:04:18;;;;;;;;;;;20.40;43.00;;;;;;5114514;28;19927;-56
2022/05/15 07:06:46;;;;;;;;;;;20.40;43.00;;;;;;5114095;28;19919;-56
2022/05/15 07:09:13;;;;;;;;;;;20.40;43.00;;;;;;5103281;28;19962;-55
2022/05/15 07:11:40;;;;;;;;;;;20.40;43.00;;;;;;5098098;28;19927;-54
2022/05/15 07:14:08;;;;;;;;;;;20.40;43.00;;;;;;5130832;27;19972;-56
2022/05/15 07:16:35;;;;;;;;;;;20.40;43.00;;;;;;5132771;27;20358;-58
2022/05/15 07:19:01;;;;;;;;;;;20.40;43.00;;;;;;5107016;27;19920;-55
2022/05/15 07:21:28;;;;;;;;;;;20.40;43.00;;;;;;5106638;28;20073;-56
2022/05/15 07:23:56;;;;;;;;;;;20.40;42.90;;;;;;5110084;28;20316;-56
2022/05/15 07:26:24;;;;;;;;;;;20.40;42.90;;;;;;5109582;27;19924;-57
2022/05/15 07:28:51;;;;;;;;;;;20.40;42.90;;;;;;5106975;27;20361;-56
2022/05/15 07:31:19;;;;;;;;;;;20.30;42.70;;;;;;5107739;27;19930;-57
2022/05/15 07:33:46;;;;;;;;;;;20.30;42.70;;;;;;5112604;27;19969;-56
2022/05/15 07:36:12;;;;;;;;;;;20.30;42.70;;;;;;5099862;28;19931;-56
2022/05/15 07:38:39;;;;;;;;;;;20.30;42.70;;;;;;5103926;27;19931;-57
2022/05/15 07:41:07;;;;;;;;;;;20.30;42.80;;;;;;5100271;27;19978;-57
2022/05/15 07:43:34;;;;;;;;;;;20.30;42.80;;;;;;5107108;27;19920;-56
2022/05/15 07:46:01;;;;;;;;;;;20.30;42.70;;;;;;5111557;28;19998;-58
2022/05/15 07:48:28;;;;;;;;;;;20.30;42.60;;;;;;5111405;27;20280;-53
2022/05/15 07:50:55;;;;;;;;;;;20.30;42.50;;;;;;5109282;27;19919;-54
2022/05/15 07:53:22;;;;;;;;;;;20.30;42.50;;;;;;5105970;28;20310;-54
2022/05/15 07:55:48;;;;;;;;;;;20.30;42.50;;;;;;5112258;28;19935;-57
2022/05/15 07:58:16;;;;;;;;;;;20.30;42.40;;;;;;5112994;28;19972;-55
2022/05/15 08:00:43;;;;;;;;;;;20.30;42.50;;;;;;5099216;28;19920;-55
2022/05/15 08:03:10;;;;;;;;;;;20.30;42.40;;;;;;5093652;28;19932;-58
2022/05/15 08:08:21;;;;;;;;;;;20.20;42.40;;;;;;5131821;27;20025;-55
2022/05/15 08:10:48;;;;;;;;;;;20.20;42.40;;;;;;5102605;28;20030;-57
2022/05/15 08:13:17;;;;;;;;;;;20.20;42.40;;;;;;5125314;27;19951;-58
2022/05/15 08:15:43;;;;;;;;;;;20.20;42.40;;;;;;5093288;28;19924;-57
2022/05/15 08:23:40;;;;;;;;;;;20.30;42.50;;;;;;5113819;28;20379;-55
2022/05/15 08:26:06;;;;;;;;;;;20.30;42.50;;;;;;5109878;28;19924;-56
2022/05/15 08:28:34;;;;;;;;;;;20.30;42.50;;;;;;5098015;28;19924;-53
2022/05/15 08:31:01;;;;;;;;;;;20.30;42.50;;;;;;5114190;27;19996;-56
2022/05/15 08:33:28;;;;;;;;;;;20.30;42.50;;;;;;5103018;28;19920;-57
2022/05/15 08:35:55;;;;;;;;;;;20.30;43.10;;;;;;5113304;27;20314;-58
2022/05/15 08:38:22;;;;;;;;;;;20.30;42.40;;;;;;5109078;28;20014;-56
2022/05/15 08:40:51;;;;;;;;;;;20.30;41.80;;;;;;5109262;28;20056;-54
2022/05/15 08:43:18;;;;;;;;;;;20.20;41.50;;;;;;5139701;27;19920;-57
2022/05/15 08:45:49;;;;;;;;;;;20.20;41.50;;;;;;5104297;28;19919;-56
2022/05/15 08:48:16;;;;;;;;;;;20.20;41.30;;;;;;5105407;28;19920;-59
2022/05/15 08:50:43;;;;;;;;;;;20.20;41.00;;;;;;5109452;28;19920;-57
2022/05/15 08:53:14;;;;;;;;;;;20.10;41.00;;;;;;5108456;28;20004;-56
2022/05/15 08:55:42;;;;;;;;;;;20.10;40.90;;;;;;5111136;28;19928;-57
2022/05/15 08:58:12;;;;;;;;;;;20.10;40.80;;;;;;5109822;28;19920;-55
2022/05/15 09:00:40;;;;;;;;;;;20.00;40.50;;;;;;5110213;28;20313;-56
2022/05/15 09:03:12;;;;;;;;;;;20.00;40.40;;;;;;5107673;28;20030;-55
2022/05/15 09:05:39;;;;;;;;;;;20.00;40.40;;;;;;5101694;28;19976;-56
2022/05/15 09:08:09;;;;;;;;;;;19.90;40.40;;;;;;5110921;28;19965;-55
2022/05/15 09:10:37;;;;;;;;;;;19.90;40.30;;;;;;5101702;28;19919;-54
2022/05/15 09:13:05;;;;;;;;;;;19.90;40.30;;;;;;5111459;28;19966;-55
2022/05/15 09:15:32;;;;;;;;;;;19.80;40.30;;;;;;5107896;28;19932;-54
2022/05/15 09:18:01;;;;;;;;;;;19.80;40.30;;;;;;5105134;28;19947;-57
2022/05/15 09:20:32;;;;;;;;;;;19.80;40.30;;;;;;5103509;28;19919;-59
2022/05/15 09:23:00;;;;;;;;;;;19.80;40.50;;;;;;5107253;28;19942;-57
2022/05/15 09:25:32;;;;;;;;;;;19.80;40.60;;;;;;5108278;28;19920;-59
2022/05/15 09:27:59;;;;;;;;;;;19.80;40.60;;;;;;5108309;28;20019;-56
2022/05/15 09:30:32;;;;;;;;;;;19.80;40.60;;;;;;5107812;28;19932;-57
2022/05/15 09:32:59;;;;;;;;;;;19.80;40.50;;;;;;5109490;28;19963;-55
2022/05/15 09:35:32;;;;;;;;;;;19.80;40.50;;;;;;5105882;28;20284;-54
2022/05/15 09:43:30;;;;;;;;;;;19.80;40.30;;;;;;5099284;28;19931;-55
2022/05/15 09:43:32;;;;;;;;;;;19.80;40.00;;;;;;5101010;28;19920;-54
2022/05/15 09:46:00;;;;;;;;;;;19.80;39.80;;;;;;5108184;28;19927;-58
2022/05/15 09:48:29;;;;;;;;;;;19.80;39.80;;;;;;5109338;28;19920;-53
2022/05/15 09:50:58;;;;;;;;;;;19.80;39.50;;;;;;5103896;28;20003;-53
2022/05/15 09:53:26;;;;;;;;;;;19.80;39.40;;;;;;5108633;28;20436;-56
2022/05/15 09:55:59;;;;;;;;;;;19.80;39.40;;;;;;5092430;28;19920;-56
2022/05/15 09:58:26;;;;;;;;;;;19.70;39.10;;;;;;5108717;28;19942;-55
2022/05/15 10:00:53;;;;;;;;;;;19.70;39.10;;;;;;5109416;28;19958;-56
2022/05/15 10:03:22;;;;;;;;;;;19.70;39.20;;;;;;5142304;27;19920;-59
2022/05/15 10:05:58;;;;;;;;;;;19.80;39.30;;;;;;5100330;28;19999;-51
2022/05/15 10:08:25;;;;;;;;;;;19.70;39.10;;;;;;5108427;28;19931;-56
2022/05/15 10:10:53;;;;;;;;;;;19.70;38.90;;;;;;5102286;28;19919;-50
2022/05/15 10:13:21;;;;;;;;;;;19.70;38.80;;;;;;5107480;28;19919;-56
2022/05/15 10:15:48;;;;;;;;;;;19.70;38.80;;;;;;5106715;28;20410;-55
2022/05/15 10:18:16;;;;;;;;;;;19.70;38.80;;;;;;5106474;28;19963;-56
2022/05/15 10:20:43;;;;;;;;;;;19.70;38.80;;;;;;5130489;27;19962;-57
2022/05/15 10:23:12;;;;;;;;;;;19.70;38.90;;;;;;5104443;28;20356;-56
2022/05/15 10:25:41;;;;;;;;;;;19.70;38.90;;;;;;5104681;28;19943;-57
2022/05/15 10:28:10;;;;;;;;;;;19.70;39.10;;;;;;5108545;28;19919;-57
2022/05/15 10:30:39;;;;;;;;;;;19.70;39.20;;;;;;5107832;28;20333;-56
2022/05/15 10:33:07;;;;;;;;;;;19.70;39.10;;;;;;5108496;28;19972;-57
2022/05/15 10:35:37;;;;;;;;;;;19.70;38.90;;;;;;5108317;28;20267;-57
2022/05/15 10:38:07;;;;;;;;;;;19.70;38.80;;;;;;5106542;28;20011;-56
2022/05/15 10:40:37;;;;;;;;;;;19.70;38.70;;;;;;5106805;28;19932;-57
2022/05/15 10:43:09;;;;;;;;;;;19.70;38.70;;;;;;5104779;28;19940;-57
2022/05/15 10:45:37;;;;;;;;;;;19.70;38.50;;;;;;5134247;27;19934;-56
2022/05/15 10:48:09;;;;;;;;;;;19.70;38.40;;;;;;5138597;27;19931;-55
2022/05/15 10:50:40;;;;;;;;;;;19.70;38.20;;;;;;5102720;28;19932;-56
2022/05/15 10:58:41;;;;;;;;;;;19.70;38.30;;;;;;5106857;28;20340;-55
2022/05/15 11:01:08;;;;;;;;;;;19.70;38.30;;;;;;5108546;28;20000;-56
2022/05/15 11:03:50;;;;;;;;;;;19.70;38.50;;;;;;5106415;28;19920;-54
2022/05/15 11:06:40;;;;;;;;;;;19.70;38.60;;;;;;5099200;28;19967;-57
2022/05/15 11:09:08;;;;;;;;;;;19.70;38.70;;;;;;5107694;28;20379;-56
2022/05/15 11:11:40;;;;;;;;;;;19.70;38.60;;;;;;5102741;28;20280;-57
2022/05/15 11:14:09;;;;;;;;;;;19.70;38.50;;;;;;5102189;28;20034;-55
2022/05/15 11:16:36;;;;;;;;;;;19.70;38.30;;;;;;5131526;27;20060;-57
2022/05/15 11:19:06;;;;;;;;;;;19.70;38.30;;;;;;5137933;27;19972;-53
2022/05/15 11:21:35;;;;;;;;;;;19.70;38.40;;;;;;5103338;28;20014;-56
2022/05/15 11:24:02;;;;;;;;;;;19.70;38.40;;;;;;5109540;28;19919;-55
2022/05/15 11:26:30;;;;;;;;;;;19.70;38.50;;;;;;5100436;28;19919;-55
2022/05/15 11:28:59;;;;;;;;;;;19.70;38.50;;;;;;5104280;28;20264;-55
2022/05/15 11:31:28;;;;;;;;;;;19.70;38.40;;;;;;5104980;28;20086;-59
2022/05/15 11:33:55;;;;;;;;;;;19.70;38.20;;;;;;5107307;28;19973;-55
2022/05/15 11:36:35;;;;;;;;;;;19.70;38.00;;;;;;5089408;28;19924;-56
2022/05/15 11:39:06;;;;;;;;;;;19.70;37.70;;;;;;5094222;28;19927;-55
2022/05/15 11:41:40;;;;;;;;;;;19.70;37.40;;;;;;5107294;28;20292;-56
2022/05/15 11:44:09;;;;;;;;;;;19.70;37.40;;;;;;5101270;28;19966;-54
2022/05/15 11:46:55;;;;;;;;;;;19.70;37.20;;;;;;5107706;28;19920;-57
2022/05/15 11:49:23;;;;;;;;;;;19.70;37.10;;;;;;5108187;28;19987;-55
2022/05/15 11:51:57;;;;;;;;;;;19.70;36.90;;;;;;5106828;28;20221;-56
2022/05/15 11:54:30;;;;;;;;;;;19.60;36.80;;;;;;5101302;28;20440;-55
2022/05/15 11:56:57;;;;;;;;;;;19.60;36.80;;;;;;5103008;28;20027;-53
2022/05/15 11:59:26;;;;;;;;;;;19.60;37.00;;;;;;5105237;28;20365;-53
2022/05/15 12:01:53;;;;;;;;;;;19.70;37.20;;;;;;5107728;28;20314;-52
2022/05/15 12:04:21;;;;;;;;;;;19.60;37.30;;;;;;5130692;27;20373;-53
2022/05/15 12:06:48;;;;;;;;;;;19.70;37.50;;;;;;5104346;28;19924;-54
2022/05/15 12:09:25;;;;;;;;;;;19.70;37.70;;;;;;5100458;28;19935;-56
2022/05/15 12:11:53;;;;;;;;;;;19.70;37.80;;;;;;5107191;28;19924;-57
2022/05/15 12:14:31;;;;;;;;;;;19.70;37.90;;;;;;5102950;28;19919;-55
2022/05/15 12:16:59;;;;;;;;;;;19.70;38.00;;;;;;5130549;27;19928;-59
2022/05/15 12:19:26;;;;;;;;;;;19.70;38.10;;;;;;5100423;28;20006;-57
2022/05/15 12:21:53;;;;;;;;;;;19.80;38.20;;;;;;5109736;28;20014;-56
2022/05/15 12:24:29;;;;;;;;;;;19.80;38.30;;;;;;5109032;28;20102;-59
2022/05/15 12:27:08;;;;;;;;;;;19.80;38.30;;;;;;5099546;28;19931;-55
2022/05/15 12:29:41;;;;;;;;;;;19.80;38.30;;;;;;5102135;28;19959;-53
2022/05/15 12:32:08;;;;;;;;;;;19.80;38.30;;;;;;5110187;28;19919;-57
2022/05/15 12:34:36;;;;;;;;;;;19.80;38.40;;;;;;5103173;28;20006;-55
2022/05/15 12:37:03;;;;;;;;;;;19.90;38.50;;;;;;5096408;28;19972;-55
2022/05/15 12:39:30;;;;;;;;;;;19.90;38.50;;;;;;5093421;28;19973;-54
2022/05/15 12:42:00;;;;;;;;;;;19.90;38.50;;;;;;5103535;28;20010;-54
2022/05/15 12:44:33;;;;;;;;;;;19.90;38.40;;;;;;5097552;28;19926;-59
2022/05/15 12:47:01;;;;;;;;;;;19.90;38.40;;;;;;5108754;28;20373;-57
2022/05/15 12:49:29;;;;;;;;;;;19.90;38.40;;;;;;5098782;28;20221;-56
2022/05/15 12:52:07;;;;;;;;;;;19.90;38.50;;;;;;5102866;28;20300;-53
2022/05/15 12:54:34;;;;;;;;;;;19.90;38.50;;;;;;5102223;28;20229;-57
2022/05/15 12:57:02;;;;;;;;;;;19.90;38.50;;;;;;5105004;28;20432;-56
2022/05/15 12:59:29;;;;;;;;;;;19.90;38.60;;;;;;5094611;28;20272;-58
2022/05/15 13:01:55;;;;;;;;;;;19.90;38.60;;;;;;5132373;27;19928;-57
2022/05/15 13:04:25;;;;;;;;;;;20.00;38.70;;;;;;5105675;28;19920;-56
2022/05/15 13:06:53;;;;;;;;;;;20.00;38.70;;;;;;5109667;28;19969;-56
2022/05/15 13:09:20;;;;;;;;;;;20.00;38.70;;;;;;5102083;28;19927;-56
2022/05/15 13:11:47;;;;;;;;;;;20.00;38.80;;;;;;5104292;28;19924;-56
2022/05/15 13:14:15;;;;;;;;;;;20.00;38.70;;;;;;5107021;28;19934;-55
2022/05/15 13:16:44;;;;;;;;;;;20.00;38.80;;;;;;5100813;28;19931;-58
2022/05/15 13:19:13;;;;;;;;;;;20.00;38.70;;;;;;5114712;28;19927;-56
2022/05/15 13:21:42;;;;;;;;;;;20.00;38.70;;;;;;5112764;28;19927;-58
2022/05/15 13:24:09;;;;;;;;;;;20.00;38.80;;;;;;5114069;28;20288;-57
2022/05/15 13:26:43;;;;;;;;;;;20.10;38.90;;;;;;5111836;28;19950;-57
2022/05/15 13:29:10;;;;;;;;;;;20.10;38.90;;;;;;5110946;28;19930;-57
2022/05/15 13:31:37;;;;;;;;;;;20.10;39.00;;;;;;5106803;28;19924;-57
2022/05/15 13:34:04;;;;;;;;;;;20.10;38.90;;;;;;5101677;28;19919;-52
2022/05/15 13:36:30;;;;;;;;;;;20.10;38.90;;;;;;5109280;28;19919;-55
2022/05/15 13:44:27;;;;;;;;;;;20.20;39.00;;;;;;5113784;28;19958;-57
2022/05/15 13:47:01;;;;;;;;;;;20.20;39.00;;;;;;5092003;28;19950;-56
2022/05/15 13:49:36;;;;;;;;;;;20.20;39.00;;;;;;5106665;28;19920;-54
2022/05/15 13:52:18;;;;;;;;;;;20.20;39.00;;;;;;5101165;28;19969;-56
2022/05/15 13:54:46;;;;;;;;;;;20.20;39.00;;;;;;5112320;28;19924;-52
2022/05/15 13:57:13;;;;;;;;;;;20.20;39.00;;;;;;5114133;28;19919;-55
2022/05/15 13:59:41;;;;;;;;;;;20.20;38.90;;;;;;5094747;28;19927;-56
2022/05/15 14:02:12;;;;;;;;;;;20.20;38.60;;;;;;5092962;28;19942;-54
2022/05/15 14:04:39;;;;;;;;;;;20.20;38.60;;;;;;5092124;28;20019;-55
2022/05/15 14:07:05;;;;;;;;;;;20.20;38.70;;;;;;5112692;28;19919;-55
2022/05/15 14:09:42;;;;;;;;;;;20.20;38.60;;;;;;5090865;28;19920;-58
2022/05/15 14:12:13;;;;;;;;;;;20.20;38.50;;;;;;5098645;28;19974;-56
2022/05/15 14:14:44;;;;;;;;;;;20.20;38.30;;;;;;5092013;28;19920;-56
2022/05/15 14:17:11;;;;;;;;;;;20.20;38.40;;;;;;5094392;28;19962;-50
2022/05/15 14:19:46;;;;;;;;;;;20.20;38.50;;;;;;5093894;28;19924;-53
2022/05/15 14:22:13;;;;;;;;;;;20.20;38.50;;;;;;5094317;28;19931;-50
2022/05/15 14:24:40;;;;;;;;;;;20.20;38.60;;;;;;5123849;27;19964;-54
2022/05/15 14:27:07;;;;;;;;;;;20.20;38.60;;;;;;5107662;28;20318;-54
2022/05/15 14:29:35;;;;;;;;;;;20.20;38.60;;;;;;5107367;28;20010;-52
2022/05/15 14:32:02;;;;;;;;;;;20.20;38.70;;;;;;5111013;28;20008;-50
2022/05/15 14:34:29;;;;;;;;;;;20.20;38.70;;;;;;5112802;28;19963;-54
2022/05/15 14:36:55;;;;;;;;;;;20.20;38.70;;;;;;5113593;28;19920;-52
2022/05/15 14:39:22;;;;;;;;;;;20.20;38.70;;;;;;5114901;28;19930;-54
2022/05/15 14:41:49;;;;;;;;;;;20.20;38.70;;;;;;5113027;28;19924;-54
2022/05/15 14:44:15;;;;;;;;;;;20.20;38.70;;;;;;5114426;28;19926;-54
2022/05/15 14:46:44;;;;;;;;;;;20.20;38.70;;;;;;5106904;28;19924;-54
2022/05/15 14:49:11;;;;;;;;;;;20.20;38.70;;;;;;5102700;28;20311;-54